sensor_id;sensor_type;location;lat;lon;timestamp;P1;durP1;ratioP1;P2;durP2;ratioP2
1454;SDS011;721;48.168;12.818;2023-08-06T00:00:37;1.87;;;1.70;;
1454;SDS011;721;48.168;12.818;2023-08-06T00:03:04;2.37;;;2.13;;
1454;SDS011;721;48.168;12.818;2023-08-06T00:05:31;1.97;;;1.87;;
1454;SDS011;721;48.168;12.818;2023-08-06T00:07:58;1.43;;;1.33;;
1454;SDS011;721;48.168;12.818;2023-08-06T00:10:27;2.70;;;2.20;;
1454;SDS011;721;48.168;12.818;2023-08-06T00:12:54;2.77;;;2.50;;
1454;SDS011;721;48.168;12.818;2023-08-06T00:15:20;1.93;;;1.70;;
1454;SDS011;721;48.168;12.818;2023-08-06T00:17:48;2.00;;;1.90;;
1454;SDS011;721;48.168;12.818;2023-08-06T00:20:15;1.60;;;1.50;;
1454;SDS011;721;48.168;12.818;2023-08-06T00:22:42;2.00;;;1.63;;
1454;SDS011;721;48.168;12.818;2023-08-06T00:25:09;2.30;;;1.57;;
1454;SDS011;721;48.168;12.818;2023-08-06T00:27:37;2.53;;;1.90;;
1454;SDS011;721;48.168;12.818;2023-08-06T00:30:05;2.20;;;1.80;;
1454;SDS011;721;48.168;12.818;2023-08-06T00:32:32;3.47;;;2.60;;
1454;SDS011;721;48.168;12.818;2023-08-06T00:34:59;1.53;;;1.43;;
1454;SDS011;721;48.168;12.818;2023-08-06T00:37:26;2.40;;;1.83;;
1454;SDS011;721;48.168;12.818;2023-08-06T00:39:53;1.97;;;1.87;;
1454;SDS011;721;48.168;12.818;2023-08-06T00:42:19;2.60;;;2.40;;
1454;SDS011;721;48.168;12.818;2023-08-06T00:44:48;2.43;;;2.23;;
1454;SDS011;721;48.168;12.818;2023-08-06T00:47:15;2.30;;;2.10;;
1454;SDS011;721;48.168;12.818;2023-08-06T00:49:42;2.63;;;2.30;;
1454;SDS011;721;48.168;12.818;2023-08-06T00:52:09;1.90;;;1.80;;
1454;SDS011;721;48.168;12.818;2023-08-06T00:54:38;1.97;;;1.83;;
1454;SDS011;721;48.168;12.818;2023-08-06T00:57:05;1.87;;;1.60;;
1454;SDS011;721;48.168;12.818;2023-08-06T00:59:33;2.20;;;1.53;;
1454;SDS011;721;48.168;12.818;2023-08-06T01:02:01;1.90;;;1.63;;
1454;SDS011;721;48.168;12.818;2023-08-06T01:04:28;2.20;;;1.50;;
1454;SDS011;721;48.168;12.818;2023-08-06T01:06:58;3.07;;;2.87;;
1454;SDS011;721;48.168;12.818;2023-08-06T01:09:32;1.97;;;1.83;;
1454;SDS011;721;48.168;12.818;2023-08-06T01:12:06;2.03;;;1.90;;
1454;SDS011;721;48.168;12.818;2023-08-06T01:14:43;1.83;;;1.73;;
1454;SDS011;721;48.168;12.818;2023-08-06T01:17:18;1.53;;;1.43;;
1454;SDS011;721;48.168;12.818;2023-08-06T01:19:46;1.53;;;1.43;;
1454;SDS011;721;48.168;12.818;2023-08-06T01:22:14;3.53;;;1.33;;
1454;SDS011;721;48.168;12.818;2023-08-06T01:24:41;2.20;;;1.73;;
1454;SDS011;721;48.168;12.818;2023-08-06T01:27:14;2.40;;;2.20;;
1454;SDS011;721;48.168;12.818;2023-08-06T01:29:47;1.60;;;1.40;;
1454;SDS011;721;48.168;12.818;2023-08-06T01:32:21;2.67;;;2.47;;
1454;SDS011;721;48.168;12.818;2023-08-06T01:34:50;2.03;;;1.77;;
1454;SDS011;721;48.168;12.818;2023-08-06T01:37:20;1.93;;;1.83;;
1454;SDS011;721;48.168;12.818;2023-08-06T01:39:47;2.33;;;1.70;;
1454;SDS011;721;48.168;12.818;2023-08-06T01:42:15;4.53;;;2.60;;
1454;SDS011;721;48.168;12.818;2023-08-06T01:44:41;1.73;;;1.30;;
1454;SDS011;721;48.168;12.818;2023-08-06T01:47:08;1.60;;;1.50;;
1454;SDS011;721;48.168;12.818;2023-08-06T01:49:35;2.67;;;2.47;;
1454;SDS011;721;48.168;12.818;2023-08-06T01:52:02;2.40;;;2.20;;
1454;SDS011;721;48.168;12.818;2023-08-06T01:54:31;2.17;;;1.60;;
1454;SDS011;721;48.168;12.818;2023-08-06T01:56:57;4.43;;;2.37;;
1454;SDS011;721;48.168;12.818;2023-08-06T01:59:24;2.63;;;2.33;;
1454;SDS011;721;48.168;12.818;2023-08-06T02:01:51;2.47;;;1.60;;
1454;SDS011;721;48.168;12.818;2023-08-06T02:04:18;2.70;;;2.40;;
1454;SDS011;721;48.168;12.818;2023-08-06T02:06:45;3.77;;;2.83;;
1454;SDS011;721;48.168;12.818;2023-08-06T02:09:12;1.93;;;1.83;;
1454;SDS011;721;48.168;12.818;2023-08-06T02:11:40;2.07;;;1.80;;
1454;SDS011;721;48.168;12.818;2023-08-06T02:14:07;2.53;;;2.33;;
1454;SDS011;721;48.168;12.818;2023-08-06T02:16:34;4.10;;;2.60;;
1454;SDS011;721;48.168;12.818;2023-08-06T02:19:01;1.90;;;1.10;;
1454;SDS011;721;48.168;12.818;2023-08-06T02:21:28;2.17;;;1.97;;
1454;SDS011;721;48.168;12.818;2023-08-06T02:23:54;1.70;;;1.60;;
1454;SDS011;721;48.168;12.818;2023-08-06T02:26:21;1.87;;;1.77;;
1454;SDS011;721;48.168;12.818;2023-08-06T02:28:49;2.30;;;2.10;;
1454;SDS011;721;48.168;12.818;2023-08-06T02:31:16;2.90;;;2.10;;
1454;SDS011;721;48.168;12.818;2023-08-06T02:33:43;2.20;;;1.70;;
1454;SDS011;721;48.168;12.818;2023-08-06T02:36:10;2.53;;;2.33;;
1454;SDS011;721;48.168;12.818;2023-08-06T02:38:37;2.77;;;1.93;;
1454;SDS011;721;48.168;12.818;2023-08-06T02:41:04;2.17;;;2.07;;
1454;SDS011;721;48.168;12.818;2023-08-06T02:43:31;1.53;;;1.43;;
1454;SDS011;721;48.168;12.818;2023-08-06T02:45:59;4.83;;;1.80;;
1454;SDS011;721;48.168;12.818;2023-08-06T02:48:27;1.63;;;1.53;;
1454;SDS011;721;48.168;12.818;2023-08-06T02:50:56;1.60;;;1.50;;
1454;SDS011;721;48.168;12.818;2023-08-06T02:53:24;1.60;;;1.50;;
1454;SDS011;721;48.168;12.818;2023-08-06T02:55:51;4.70;;;1.67;;
1454;SDS011;721;48.168;12.818;2023-08-06T02:58:18;2.60;;;2.40;;
1454;SDS011;721;48.168;12.818;2023-08-06T03:00:47;2.50;;;2.30;;
1454;SDS011;721;48.168;12.818;2023-08-06T03:03:27;1.83;;;1.73;;
1454;SDS011;721;48.168;12.818;2023-08-06T03:05:54;5.13;;;1.93;;
1454;SDS011;721;48.168;12.818;2023-08-06T03:08:21;3.27;;;3.00;;
1454;SDS011;721;48.168;12.818;2023-08-06T03:10:48;2.40;;;2.20;;
1454;SDS011;721;48.168;12.818;2023-08-06T03:13:15;2.30;;;1.47;;
1454;SDS011;721;48.168;12.818;2023-08-06T03:15:43;1.77;;;1.63;;
1454;SDS011;721;48.168;12.818;2023-08-06T03:18:11;1.93;;;1.77;;
1454;SDS011;721;48.168;12.818;2023-08-06T03:20:38;2.30;;;1.30;;
1454;SDS011;721;48.168;12.818;2023-08-06T03:23:05;2.03;;;1.93;;
1454;SDS011;721;48.168;12.818;2023-08-06T03:25:34;2.60;;;2.00;;
1454;SDS011;721;48.168;12.818;2023-08-06T03:28:01;2.60;;;2.40;;
1454;SDS011;721;48.168;12.818;2023-08-06T03:30:28;1.47;;;1.37;;
1454;SDS011;721;48.168;12.818;2023-08-06T03:32:55;3.73;;;1.60;;
1454;SDS011;721;48.168;12.818;2023-08-06T03:35:24;2.07;;;1.80;;
1454;SDS011;721;48.168;12.818;2023-08-06T03:37:50;2.70;;;2.00;;
1454;SDS011;721;48.168;12.818;2023-08-06T03:40:17;2.17;;;2.00;;
1454;SDS011;721;48.168;12.818;2023-08-06T03:42:44;1.53;;;1.43;;
1454;SDS011;721;48.168;12.818;2023-08-06T03:45:11;2.93;;;2.23;;
1454;SDS011;721;48.168;12.818;2023-08-06T03:47:38;2.90;;;2.70;;
1454;SDS011;721;48.168;12.818;2023-08-06T03:50:05;4.23;;;1.90;;
1454;SDS011;721;48.168;12.818;2023-08-06T03:52:33;2.60;;;1.83;;
1454;SDS011;721;48.168;12.818;2023-08-06T03:55:00;2.60;;;1.63;;
1454;SDS011;721;48.168;12.818;2023-08-06T03:57:27;2.53;;;2.37;;
1454;SDS011;721;48.168;12.818;2023-08-06T03:59:54;1.77;;;1.67;;
1454;SDS011;721;48.168;12.818;2023-08-06T04:02:21;1.20;;;1.10;;
1454;SDS011;721;48.168;12.818;2023-08-06T04:04:48;2.10;;;2.00;;
1454;SDS011;721;48.168;12.818;2023-08-06T04:07:15;1.80;;;1.70;;
1454;SDS011;721;48.168;12.818;2023-08-06T04:09:53;3.60;;;3.23;;
1454;SDS011;721;48.168;12.818;2023-08-06T04:12:21;3.73;;;2.17;;
1454;SDS011;721;48.168;12.818;2023-08-06T04:14:50;1.73;;;1.63;;
1454;SDS011;721;48.168;12.818;2023-08-06T04:17:18;1.43;;;1.33;;
1454;SDS011;721;48.168;12.818;2023-08-06T04:19:46;1.83;;;1.73;;
1454;SDS011;721;48.168;12.818;2023-08-06T04:22:14;2.80;;;1.80;;
1454;SDS011;721;48.168;12.818;2023-08-06T04:24:41;2.70;;;2.50;;
1454;SDS011;721;48.168;12.818;2023-08-06T04:27:10;1.80;;;1.70;;
1454;SDS011;721;48.168;12.818;2023-08-06T04:29:38;1.90;;;1.77;;
1454;SDS011;721;48.168;12.818;2023-08-06T04:32:06;1.50;;;1.40;;
1454;SDS011;721;48.168;12.818;2023-08-06T04:34:35;2.90;;;2.03;;
1454;SDS011;721;48.168;12.818;2023-08-06T04:37:02;1.50;;;1.40;;
1454;SDS011;721;48.168;12.818;2023-08-06T04:39:30;2.93;;;2.57;;
1454;SDS011;721;48.168;12.818;2023-08-06T04:41:57;2.17;;;2.07;;
1454;SDS011;721;48.168;12.818;2023-08-06T04:44:25;4.70;;;1.50;;
1454;SDS011;721;48.168;12.818;2023-08-06T04:46:52;2.40;;;2.20;;
1454;SDS011;721;48.168;12.818;2023-08-06T04:49:19;3.10;;;2.83;;
1454;SDS011;721;48.168;12.818;2023-08-06T04:51:47;1.53;;;1.40;;
1454;SDS011;721;48.168;12.818;2023-08-06T04:54:14;1.63;;;1.43;;
1454;SDS011;721;48.168;12.818;2023-08-06T04:56:40;1.80;;;1.70;;
1454;SDS011;721;48.168;12.818;2023-08-06T04:59:07;2.63;;;2.53;;
1454;SDS011;721;48.168;12.818;2023-08-06T05:01:36;2.10;;;2.00;;
1454;SDS011;721;48.168;12.818;2023-08-06T05:04:03;1.60;;;1.50;;
1454;SDS011;721;48.168;12.818;2023-08-06T05:06:29;1.97;;;1.87;;
1454;SDS011;721;48.168;12.818;2023-08-06T05:08:56;1.53;;;1.43;;
1454;SDS011;721;48.168;12.818;2023-08-06T05:11:24;1.83;;;1.47;;
1454;SDS011;721;48.168;12.818;2023-08-06T05:13:51;2.00;;;1.87;;
1454;SDS011;721;48.168;12.818;2023-08-06T05:16:17;1.60;;;1.50;;
1454;SDS011;721;48.168;12.818;2023-08-06T05:18:46;2.10;;;2.00;;
1454;SDS011;721;48.168;12.818;2023-08-06T05:21:13;2.50;;;2.30;;
1454;SDS011;721;48.168;12.818;2023-08-06T05:23:41;3.20;;;1.47;;
1454;SDS011;721;48.168;12.818;2023-08-06T05:26:08;1.30;;;1.20;;
1454;SDS011;721;48.168;12.818;2023-08-06T05:28:35;1.97;;;1.60;;
1454;SDS011;721;48.168;12.818;2023-08-06T05:31:05;1.67;;;1.57;;
1454;SDS011;721;48.168;12.818;2023-08-06T05:33:31;1.30;;;1.20;;
1454;SDS011;721;48.168;12.818;2023-08-06T05:36:00;1.30;;;1.20;;
1454;SDS011;721;48.168;12.818;2023-08-06T05:38:27;1.40;;;1.30;;
1454;SDS011;721;48.168;12.818;2023-08-06T05:40:53;1.60;;;1.50;;
1454;SDS011;721;48.168;12.818;2023-08-06T05:43:21;2.97;;;1.47;;
1454;SDS011;721;48.168;12.818;2023-08-06T05:45:49;1.67;;;1.57;;
1454;SDS011;721;48.168;12.818;2023-08-06T05:48:16;1.97;;;1.53;;
1454;SDS011;721;48.168;12.818;2023-08-06T05:50:43;1.60;;;1.50;;
1454;SDS011;721;48.168;12.818;2023-08-06T05:53:11;2.17;;;2.07;;
1454;SDS011;721;48.168;12.818;2023-08-06T05:55:39;1.20;;;1.10;;
1454;SDS011;721;48.168;12.818;2023-08-06T05:58:06;1.67;;;1.57;;
1454;SDS011;721;48.168;12.818;2023-08-06T06:00:32;1.73;;;1.63;;
1454;SDS011;721;48.168;12.818;2023-08-06T06:03:00;1.40;;;1.30;;
1454;SDS011;721;48.168;12.818;2023-08-06T06:05:27;2.10;;;1.40;;
1454;SDS011;721;48.168;12.818;2023-08-06T06:07:54;2.20;;;1.47;;
1454;SDS011;721;48.168;12.818;2023-08-06T06:10:22;2.13;;;1.93;;
1454;SDS011;721;48.168;12.818;2023-08-06T06:12:49;2.17;;;2.07;;
1454;SDS011;721;48.168;12.818;2023-08-06T06:15:16;1.30;;;1.20;;
1454;SDS011;721;48.168;12.818;2023-08-06T06:17:45;1.73;;;1.60;;
1454;SDS011;721;48.168;12.818;2023-08-06T06:20:12;1.40;;;1.30;;
1454;SDS011;721;48.168;12.818;2023-08-06T06:22:39;1.27;;;1.20;;
1454;SDS011;721;48.168;12.818;2023-08-06T06:25:06;2.13;;;1.57;;
1454;SDS011;721;48.168;12.818;2023-08-06T06:27:36;1.37;;;1.07;;
1454;SDS011;721;48.168;12.818;2023-08-06T06:30:03;2.40;;;1.83;;
1454;SDS011;721;48.168;12.818;2023-08-06T06:32:30;1.53;;;1.30;;
1454;SDS011;721;48.168;12.818;2023-08-06T06:34:57;1.70;;;1.60;;
1454;SDS011;721;48.168;12.818;2023-08-06T06:37:24;1.83;;;1.73;;
1454;SDS011;721;48.168;12.818;2023-08-06T06:39:51;1.93;;;1.77;;
1454;SDS011;721;48.168;12.818;2023-08-06T06:42:18;1.33;;;1.20;;
1454;SDS011;721;48.168;12.818;2023-08-06T06:44:46;3.00;;;1.40;;
1454;SDS011;721;48.168;12.818;2023-08-06T06:47:13;1.63;;;1.53;;
1454;SDS011;721;48.168;12.818;2023-08-06T06:49:40;0.90;;;0.90;;
1454;SDS011;721;48.168;12.818;2023-08-06T06:52:07;1.50;;;1.40;;
1454;SDS011;721;48.168;12.818;2023-08-06T06:54:34;1.40;;;1.30;;
1454;SDS011;721;48.168;12.818;2023-08-06T06:57:01;1.17;;;1.00;;
1454;SDS011;721;48.168;12.818;2023-08-06T06:59:27;1.10;;;1.10;;
1454;SDS011;721;48.168;12.818;2023-08-06T07:01:56;1.87;;;1.77;;
1454;SDS011;721;48.168;12.818;2023-08-06T07:04:22;1.30;;;1.10;;
1454;SDS011;721;48.168;12.818;2023-08-06T07:06:49;2.23;;;2.00;;
1454;SDS011;721;48.168;12.818;2023-08-06T07:09:17;1.53;;;1.00;;
1454;SDS011;721;48.168;12.818;2023-08-06T07:11:43;0.90;;;0.90;;
1454;SDS011;721;48.168;12.818;2023-08-06T07:14:10;1.97;;;1.87;;
1454;SDS011;721;48.168;12.818;2023-08-06T07:16:37;1.03;;;1.03;;
1454;SDS011;721;48.168;12.818;2023-08-06T07:19:05;1.67;;;1.27;;
1454;SDS011;721;48.168;12.818;2023-08-06T07:21:32;1.60;;;1.50;;
1454;SDS011;721;48.168;12.818;2023-08-06T07:23:59;2.07;;;1.80;;
1454;SDS011;721;48.168;12.818;2023-08-06T07:26:25;1.33;;;1.23;;
1454;SDS011;721;48.168;12.818;2023-08-06T07:28:53;1.87;;;1.77;;
1454;SDS011;721;48.168;12.818;2023-08-06T07:31:19;1.30;;;1.20;;
1454;SDS011;721;48.168;12.818;2023-08-06T07:33:46;1.73;;;1.53;;
1454;SDS011;721;48.168;12.818;2023-08-06T07:36:14;1.30;;;1.20;;
1454;SDS011;721;48.168;12.818;2023-08-06T07:38:41;1.40;;;1.30;;
1454;SDS011;721;48.168;12.818;2023-08-06T07:41:08;1.73;;;1.20;;
1454;SDS011;721;48.168;12.818;2023-08-06T07:43:35;1.83;;;1.70;;
1454;SDS011;721;48.168;12.818;2023-08-06T07:46:02;1.43;;;1.33;;
1454;SDS011;721;48.168;12.818;2023-08-06T07:48:29;1.47;;;1.37;;
1454;SDS011;721;48.168;12.818;2023-08-06T07:50:55;1.83;;;1.00;;
1454;SDS011;721;48.168;12.818;2023-08-06T07:53:24;1.50;;;1.40;;
1454;SDS011;721;48.168;12.818;2023-08-06T07:55:54;1.13;;;1.03;;
1454;SDS011;721;48.168;12.818;2023-08-06T07:58:21;1.40;;;1.30;;
1454;SDS011;721;48.168;12.818;2023-08-06T08:00:49;2.33;;;1.70;;
1454;SDS011;721;48.168;12.818;2023-08-06T08:03:16;1.13;;;1.03;;
1454;SDS011;721;48.168;12.818;2023-08-06T08:05:43;1.00;;;0.97;;
1454;SDS011;721;48.168;12.818;2023-08-06T08:08:10;1.50;;;1.40;;
1454;SDS011;721;48.168;12.818;2023-08-06T08:10:38;1.43;;;1.33;;
1454;SDS011;721;48.168;12.818;2023-08-06T08:13:05;1.83;;;1.63;;
1454;SDS011;721;48.168;12.818;2023-08-06T08:15:32;1.93;;;1.83;;
1454;SDS011;721;48.168;12.818;2023-08-06T08:18:00;1.40;;;1.30;;
1454;SDS011;721;48.168;12.818;2023-08-06T08:20:27;1.10;;;1.10;;
1454;SDS011;721;48.168;12.818;2023-08-06T08:22:56;2.90;;;2.70;;
1454;SDS011;721;48.168;12.818;2023-08-06T08:25:24;4.67;;;1.43;;
1454;SDS011;721;48.168;12.818;2023-08-06T08:27:53;1.57;;;1.47;;
1454;SDS011;721;48.168;12.818;2023-08-06T08:30:20;0.83;;;0.83;;
1454;SDS011;721;48.168;12.818;2023-08-06T08:32:47;1.00;;;0.80;;
1454;SDS011;721;48.168;12.818;2023-08-06T08:35:13;1.13;;;0.90;;
1454;SDS011;721;48.168;12.818;2023-08-06T08:37:41;2.03;;;1.20;;
1454;SDS011;721;48.168;12.818;2023-08-06T08:40:08;1.03;;;0.93;;
1454;SDS011;721;48.168;12.818;2023-08-06T08:42:36;1.00;;;1.00;;
1454;SDS011;721;48.168;12.818;2023-08-06T08:45:05;1.90;;;1.30;;
1454;SDS011;721;48.168;12.818;2023-08-06T08:47:37;1.40;;;1.10;;
1454;SDS011;721;48.168;12.818;2023-08-06T08:50:05;1.10;;;1.00;;
1454;SDS011;721;48.168;12.818;2023-08-06T08:52:34;0.97;;;0.97;;
1454;SDS011;721;48.168;12.818;2023-08-06T08:55:02;0.83;;;0.83;;
1454;SDS011;721;48.168;12.818;2023-08-06T08:57:29;3.20;;;1.20;;
1454;SDS011;721;48.168;12.818;2023-08-06T08:59:56;1.20;;;1.10;;
1454;SDS011;721;48.168;12.818;2023-08-06T09:02:25;0.97;;;0.97;;
1454;SDS011;721;48.168;12.818;2023-08-06T09:04:55;1.10;;;1.00;;
1454;SDS011;721;48.168;12.818;2023-08-06T09:07:24;1.20;;;1.00;;
1454;SDS011;721;48.168;12.818;2023-08-06T09:09:52;1.10;;;1.00;;
1454;SDS011;721;48.168;12.818;2023-08-06T09:12:20;0.97;;;0.97;;
1454;SDS011;721;48.168;12.818;2023-08-06T09:14:48;1.10;;;1.00;;
1454;SDS011;721;48.168;12.818;2023-08-06T09:17:15;1.20;;;1.10;;
1454;SDS011;721;48.168;12.818;2023-08-06T09:19:46;1.97;;;1.20;;
1454;SDS011;721;48.168;12.818;2023-08-06T09:22:14;1.00;;;1.00;;
1454;SDS011;721;48.168;12.818;2023-08-06T09:24:42;2.63;;;1.63;;
1454;SDS011;721;48.168;12.818;2023-08-06T09:27:12;1.20;;;1.10;;
1454;SDS011;721;48.168;12.818;2023-08-06T09:29:40;1.03;;;0.93;;
1454;SDS011;721;48.168;12.818;2023-08-06T09:32:08;1.17;;;1.07;;
1454;SDS011;721;48.168;12.818;2023-08-06T09:34:35;0.80;;;0.80;;
1454;SDS011;721;48.168;12.818;2023-08-06T09:37:07;0.90;;;0.90;;
1454;SDS011;721;48.168;12.818;2023-08-06T09:39:35;1.10;;;1.10;;
1454;SDS011;721;48.168;12.818;2023-08-06T09:42:04;0.80;;;0.80;;
1454;SDS011;721;48.168;12.818;2023-08-06T09:44:31;0.80;;;0.80;;
1454;SDS011;721;48.168;12.818;2023-08-06T09:47:00;0.80;;;0.80;;
1454;SDS011;721;48.168;12.818;2023-08-06T09:49:28;0.80;;;0.80;;
1454;SDS011;721;48.168;12.818;2023-08-06T09:52:09;1.00;;;0.97;;
1454;SDS011;721;48.168;12.818;2023-08-06T09:54:37;0.93;;;0.93;;
1454;SDS011;721;48.168;12.818;2023-08-06T09:57:04;0.90;;;0.90;;
1454;SDS011;721;48.168;12.818;2023-08-06T09:59:32;0.80;;;0.80;;
1454;SDS011;721;48.168;12.818;2023-08-06T10:01:59;0.90;;;0.90;;
1454;SDS011;721;48.168;12.818;2023-08-06T10:04:26;0.80;;;0.80;;
1454;SDS011;721;48.168;12.818;2023-08-06T10:06:55;0.90;;;0.80;;
1454;SDS011;721;48.168;12.818;2023-08-06T10:09:25;0.80;;;0.80;;
1454;SDS011;721;48.168;12.818;2023-08-06T10:11:52;1.33;;;1.23;;
1454;SDS011;721;48.168;12.818;2023-08-06T10:14:21;0.80;;;0.80;;
1454;SDS011;721;48.168;12.818;2023-08-06T10:16:52;1.00;;;1.00;;
1454;SDS011;721;48.168;12.818;2023-08-06T10:19:20;3.70;;;1.20;;
1454;SDS011;721;48.168;12.818;2023-08-06T10:24:47;2.20;;;1.23;;
1454;SDS011;721;48.168;12.818;2023-08-06T10:27:21;0.90;;;0.90;;
1454;SDS011;721;48.168;12.818;2023-08-06T10:29:48;1.07;;;1.00;;
1454;SDS011;721;48.168;12.818;2023-08-06T10:32:16;0.80;;;0.80;;
1454;SDS011;721;48.168;12.818;2023-08-06T10:34:53;0.90;;;0.90;;
1454;SDS011;721;48.168;12.818;2023-08-06T10:37:21;1.20;;;0.90;;
1454;SDS011;721;48.168;12.818;2023-08-06T10:39:50;0.70;;;0.70;;
1454;SDS011;721;48.168;12.818;2023-08-06T10:42:21;0.90;;;0.90;;
1454;SDS011;721;48.168;12.818;2023-08-06T10:47:43;1.13;;;1.03;;
1454;SDS011;721;48.168;12.818;2023-08-06T10:50:11;0.80;;;0.80;;
1454;SDS011;721;48.168;12.818;2023-08-06T10:52:41;0.90;;;0.90;;
1454;SDS011;721;48.168;12.818;2023-08-06T10:55:10;0.77;;;0.77;;
1454;SDS011;721;48.168;12.818;2023-08-06T10:57:37;0.70;;;0.70;;
1454;SDS011;721;48.168;12.818;2023-08-06T11:00:04;0.80;;;0.80;;
1454;SDS011;721;48.168;12.818;2023-08-06T11:02:33;0.80;;;0.80;;
1454;SDS011;721;48.168;12.818;2023-08-06T11:05:04;0.70;;;0.70;;
1454;SDS011;721;48.168;12.818;2023-08-06T11:07:32;0.80;;;0.80;;
1454;SDS011;721;48.168;12.818;2023-08-06T11:10:02;0.80;;;0.80;;
1454;SDS011;721;48.168;12.818;2023-08-06T11:12:32;0.80;;;0.80;;
1454;SDS011;721;48.168;12.818;2023-08-06T11:14:59;0.80;;;0.80;;
1454;SDS011;721;48.168;12.818;2023-08-06T11:17:27;1.57;;;1.47;;
1454;SDS011;721;48.168;12.818;2023-08-06T11:19:55;0.80;;;0.80;;
1454;SDS011;721;48.168;12.818;2023-08-06T11:22:22;0.80;;;0.80;;
1454;SDS011;721;48.168;12.818;2023-08-06T11:24:49;0.70;;;0.70;;
1454;SDS011;721;48.168;12.818;2023-08-06T11:27:16;0.80;;;0.80;;
1454;SDS011;721;48.168;12.818;2023-08-06T11:29:45;0.80;;;0.80;;
1454;SDS011;721;48.168;12.818;2023-08-06T11:32:12;1.67;;;1.13;;
1454;SDS011;721;48.168;12.818;2023-08-06T11:34:39;0.80;;;0.80;;
1454;SDS011;721;48.168;12.818;2023-08-06T11:37:06;0.70;;;0.70;;
1454;SDS011;721;48.168;12.818;2023-08-06T11:39:33;0.70;;;0.70;;
1454;SDS011;721;48.168;12.818;2023-08-06T11:42:02;0.80;;;0.80;;
1454;SDS011;721;48.168;12.818;2023-08-06T11:44:30;0.83;;;0.83;;
1454;SDS011;721;48.168;12.818;2023-08-06T11:47:00;0.90;;;0.90;;
1454;SDS011;721;48.168;12.818;2023-08-06T11:49:39;0.80;;;0.80;;
1454;SDS011;721;48.168;12.818;2023-08-06T11:52:10;0.77;;;0.77;;
1454;SDS011;721;48.168;12.818;2023-08-06T11:54:41;0.70;;;0.70;;
1454;SDS011;721;48.168;12.818;2023-08-06T11:57:08;0.80;;;0.80;;
1454;SDS011;721;48.168;12.818;2023-08-06T11:59:37;0.70;;;0.70;;
1454;SDS011;721;48.168;12.818;2023-08-06T12:02:07;0.83;;;0.83;;
1454;SDS011;721;48.168;12.818;2023-08-06T12:07:30;0.70;;;0.70;;
1454;SDS011;721;48.168;12.818;2023-08-06T12:09:58;0.70;;;0.70;;
1454;SDS011;721;48.168;12.818;2023-08-06T12:12:25;0.70;;;0.70;;
1454;SDS011;721;48.168;12.818;2023-08-06T12:14:53;0.80;;;0.80;;
1454;SDS011;721;48.168;12.818;2023-08-06T12:17:23;1.03;;;1.03;;
1454;SDS011;721;48.168;12.818;2023-08-06T12:19:50;0.70;;;0.70;;
1454;SDS011;721;48.168;12.818;2023-08-06T12:22:17;0.70;;;0.70;;
1454;SDS011;721;48.168;12.818;2023-08-06T12:24:44;0.70;;;0.70;;
1454;SDS011;721;48.168;12.818;2023-08-06T12:27:12;0.70;;;0.70;;
1454;SDS011;721;48.168;12.818;2023-08-06T12:29:40;0.70;;;0.70;;
1454;SDS011;721;48.168;12.818;2023-08-06T12:32:07;1.67;;;1.30;;
1454;SDS011;721;48.168;12.818;2023-08-06T12:34:37;0.80;;;0.80;;
1454;SDS011;721;48.168;12.818;2023-08-06T12:37:04;0.70;;;0.70;;
1454;SDS011;721;48.168;12.818;2023-08-06T12:39:31;0.70;;;0.70;;
1454;SDS011;721;48.168;12.818;2023-08-06T12:41:58;0.70;;;0.70;;
1454;SDS011;721;48.168;12.818;2023-08-06T12:44:25;0.70;;;0.70;;
1454;SDS011;721;48.168;12.818;2023-08-06T12:46:52;1.20;;;0.90;;
1454;SDS011;721;48.168;12.818;2023-08-06T12:49:18;0.80;;;0.80;;
1454;SDS011;721;48.168;12.818;2023-08-06T12:51:48;0.73;;;0.73;;
1454;SDS011;721;48.168;12.818;2023-08-06T12:54:16;0.80;;;0.80;;
1454;SDS011;721;48.168;12.818;2023-08-06T12:56:43;0.80;;;0.80;;
1454;SDS011;721;48.168;12.818;2023-08-06T12:59:10;0.70;;;0.70;;
1454;SDS011;721;48.168;12.818;2023-08-06T13:01:37;0.80;;;0.80;;
1454;SDS011;721;48.168;12.818;2023-08-06T13:04:04;0.80;;;0.80;;
1454;SDS011;721;48.168;12.818;2023-08-06T13:06:31;0.80;;;0.80;;
1454;SDS011;721;48.168;12.818;2023-08-06T13:09:02;0.90;;;0.90;;
1454;SDS011;721;48.168;12.818;2023-08-06T13:11:29;0.70;;;0.70;;
1454;SDS011;721;48.168;12.818;2023-08-06T13:13:58;1.77;;;1.03;;
1454;SDS011;721;48.168;12.818;2023-08-06T13:16:30;0.80;;;0.80;;
1454;SDS011;721;48.168;12.818;2023-08-06T13:18:56;0.80;;;0.80;;
1454;SDS011;721;48.168;12.818;2023-08-06T13:21:23;0.80;;;0.80;;
1454;SDS011;721;48.168;12.818;2023-08-06T13:23:50;0.80;;;0.80;;
1454;SDS011;721;48.168;12.818;2023-08-06T13:26:19;0.70;;;0.70;;
1454;SDS011;721;48.168;12.818;2023-08-06T13:28:45;1.00;;;0.80;;
1454;SDS011;721;48.168;12.818;2023-08-06T13:31:13;0.80;;;0.80;;
1454;SDS011;721;48.168;12.818;2023-08-06T13:33:39;0.80;;;0.80;;
1454;SDS011;721;48.168;12.818;2023-08-06T13:36:06;0.70;;;0.70;;
1454;SDS011;721;48.168;12.818;2023-08-06T13:38:33;0.80;;;0.80;;
1454;SDS011;721;48.168;12.818;2023-08-06T13:41:00;0.80;;;0.80;;
1454;SDS011;721;48.168;12.818;2023-08-06T13:43:29;0.70;;;0.70;;
1454;SDS011;721;48.168;12.818;2023-08-06T13:45:55;0.70;;;0.70;;
1454;SDS011;721;48.168;12.818;2023-08-06T13:48:22;1.37;;;1.23;;
1454;SDS011;721;48.168;12.818;2023-08-06T13:50:49;0.77;;;0.77;;
1454;SDS011;721;48.168;12.818;2023-08-06T13:53:16;0.80;;;0.80;;
1454;SDS011;721;48.168;12.818;2023-08-06T13:55:42;0.77;;;0.77;;
1454;SDS011;721;48.168;12.818;2023-08-06T13:58:09;0.90;;;0.90;;
1454;SDS011;721;48.168;12.818;2023-08-06T14:00:37;0.80;;;0.80;;
1454;SDS011;721;48.168;12.818;2023-08-06T14:03:04;0.70;;;0.70;;
1454;SDS011;721;48.168;12.818;2023-08-06T14:05:32;0.87;;;0.87;;
1454;SDS011;721;48.168;12.818;2023-08-06T14:07:58;0.80;;;0.80;;
1454;SDS011;721;48.168;12.818;2023-08-06T14:10:25;0.80;;;0.80;;
1454;SDS011;721;48.168;12.818;2023-08-06T14:12:52;0.80;;;0.80;;
1454;SDS011;721;48.168;12.818;2023-08-06T14:15:19;0.80;;;0.80;;
1454;SDS011;721;48.168;12.818;2023-08-06T14:17:47;0.80;;;0.80;;
1454;SDS011;721;48.168;12.818;2023-08-06T14:20:14;0.80;;;0.80;;
1454;SDS011;721;48.168;12.818;2023-08-06T14:22:41;0.80;;;0.80;;
1454;SDS011;721;48.168;12.818;2023-08-06T14:25:08;0.93;;;0.90;;
1454;SDS011;721;48.168;12.818;2023-08-06T14:27:35;0.80;;;0.80;;
1454;SDS011;721;48.168;12.818;2023-08-06T14:30:04;0.80;;;0.80;;
1454;SDS011;721;48.168;12.818;2023-08-06T14:32:31;0.80;;;0.80;;
1454;SDS011;721;48.168;12.818;2023-08-06T14:35:00;0.70;;;0.70;;
1454;SDS011;721;48.168;12.818;2023-08-06T14:37:27;0.70;;;0.70;;
1454;SDS011;721;48.168;12.818;2023-08-06T14:39:54;0.70;;;0.70;;
1454;SDS011;721;48.168;12.818;2023-08-06T14:42:20;2.80;;;0.80;;
1454;SDS011;721;48.168;12.818;2023-08-06T14:44:47;0.70;;;0.70;;
1454;SDS011;721;48.168;12.818;2023-08-06T14:47:15;0.77;;;0.77;;
1454;SDS011;721;48.168;12.818;2023-08-06T14:49:42;0.93;;;0.87;;
1454;SDS011;721;48.168;12.818;2023-08-06T14:52:11;0.80;;;0.80;;
1454;SDS011;721;48.168;12.818;2023-08-06T14:54:38;0.70;;;0.70;;
1454;SDS011;721;48.168;12.818;2023-08-06T14:57:05;0.77;;;0.77;;
1454;SDS011;721;48.168;12.818;2023-08-06T14:59:33;0.80;;;0.80;;
1454;SDS011;721;48.168;12.818;2023-08-06T15:02:00;0.70;;;0.70;;
1454;SDS011;721;48.168;12.818;2023-08-06T15:04:27;0.70;;;0.70;;
1454;SDS011;721;48.168;12.818;2023-08-06T15:06:54;0.83;;;0.83;;
1454;SDS011;721;48.168;12.818;2023-08-06T15:09:22;0.70;;;0.70;;
1454;SDS011;721;48.168;12.818;2023-08-06T15:11:49;0.70;;;0.70;;
1454;SDS011;721;48.168;12.818;2023-08-06T15:14:16;0.70;;;0.70;;
1454;SDS011;721;48.168;12.818;2023-08-06T15:16:46;0.80;;;0.80;;
1454;SDS011;721;48.168;12.818;2023-08-06T15:19:13;0.90;;;0.90;;
1454;SDS011;721;48.168;12.818;2023-08-06T15:21:40;0.70;;;0.70;;
1454;SDS011;721;48.168;12.818;2023-08-06T15:24:08;0.70;;;0.70;;
1454;SDS011;721;48.168;12.818;2023-08-06T15:26:36;0.80;;;0.80;;